sensor_id;sensor_type;location;lat;lon;timestamp;pressure;altitude;pressure_sealevel;temperature;humidity
63347;BME280;49472;49.880;8.650;2022-11-20T00:02:24;99572.69;;;31.70;21.80
63347;BME280;49472;49.880;8.650;2022-11-20T00:04:49;99576.63;;;31.57;21.83
63347;BME280;49472;49.880;8.650;2022-11-20T00:07:14;99575.84;;;31.62;21.47
63347;BME280;49472;49.880;8.650;2022-11-20T00:09:39;99570.88;;;30.92;22.61
63347;BME280;49472;49.880;8.650;2022-11-20T00:12:05;99564.31;;;31.05;22.41
63347;BME280;49472;49.880;8.650;2022-11-20T00:14:30;99557.06;;;31.43;21.78
63347;BME280;49472;49.880;8.650;2022-11-20T00:16:55;99562.09;;;31.49;21.79
63347;BME280;49472;49.880;8.650;2022-11-20T00:19:21;99562.56;;;31.36;21.96
63347;BME280;49472;49.880;8.650;2022-11-20T00:21:46;99566.88;;;31.57;22.01
63347;BME280;49472;49.880;8.650;2022-11-20T00:24:12;99568.22;;;31.65;22.01
63347;BME280;49472;49.880;8.650;2022-11-20T00:26:37;99562.06;;;31.39;21.74
63347;BME280;49472;49.880;8.650;2022-11-20T00:29:03;99574.00;;;30.41;22.27
63347;BME280;49472;49.880;8.650;2022-11-20T00:31:29;99569.06;;;31.03;22.44
63347;BME280;49472;49.880;8.650;2022-11-20T00:33:55;99562.75;;;31.09;22.50
63347;BME280;49472;49.880;8.650;2022-11-20T00:36:22;99567.94;;;31.82;21.63
63347;BME280;49472;49.880;8.650;2022-11-20T00:38:52;99563.97;;;31.79;22.57
63347;BME280;49472;49.880;8.650;2022-11-20T00:41:18;99562.50;;;30.63;22.49
63347;BME280;49472;49.880;8.650;2022-11-20T00:43:43;99566.97;;;30.57;22.82
63347;BME280;49472;49.880;8.650;2022-11-20T00:46:12;99555.69;;;30.67;22.61
63347;BME280;49472;49.880;8.650;2022-11-20T00:48:37;99551.69;;;31.12;22.25
63347;BME280;49472;49.880;8.650;2022-11-20T00:51:03;99547.53;;;30.74;22.55
63347;BME280;49472;49.880;8.650;2022-11-20T00:53:29;99551.66;;;31.02;22.90
63347;BME280;49472;49.880;8.650;2022-11-20T00:56:06;99548.38;;;31.73;21.62
63347;BME280;49472;49.880;8.650;2022-11-20T00:58:34;99549.56;;;31.19;22.36
63347;BME280;49472;49.880;8.650;2022-11-20T01:01:10;99556.25;;;31.42;22.30
63347;BME280;49472;49.880;8.650;2022-11-20T01:03:39;99558.06;;;31.36;22.06
63347;BME280;49472;49.880;8.650;2022-11-20T01:06:07;99554.44;;;31.48;22.33
63347;BME280;49472;49.880;8.650;2022-11-20T01:08:34;99554.88;;;31.34;22.24
63347;BME280;49472;49.880;8.650;2022-11-20T01:11:11;99554.97;;;31.50;22.60
63347;BME280;49472;49.880;8.650;2022-11-20T01:13:37;99560.53;;;31.58;21.81
63347;BME280;49472;49.880;8.650;2022-11-20T01:16:14;99551.44;;;31.29;21.96
63347;BME280;49472;49.880;8.650;2022-11-20T01:18:43;99561.38;;;31.01;22.30
63347;BME280;49472;49.880;8.650;2022-11-20T01:21:11;99563.59;;;31.20;22.73
63347;BME280;49472;49.880;8.650;2022-11-20T01:23:39;99562.41;;;31.84;21.98
63347;BME280;49472;49.880;8.650;2022-11-20T01:26:07;99553.91;;;31.46;21.94
63347;BME280;49472;49.880;8.650;2022-11-20T01:28:33;99555.09;;;31.12;22.31
63347;BME280;49472;49.880;8.650;2022-11-20T01:30:59;99556.69;;;31.13;22.52
63347;BME280;49472;49.880;8.650;2022-11-20T01:33:25;99563.75;;;30.92;22.86
63347;BME280;49472;49.880;8.650;2022-11-20T01:35:51;99550.63;;;31.13;22.67
63347;BME280;49472;49.880;8.650;2022-11-20T01:38:16;99553.28;;;31.18;22.71
63347;BME280;49472;49.880;8.650;2022-11-20T01:40:42;99554.25;;;30.91;21.95
63347;BME280;49472;49.880;8.650;2022-11-20T01:43:15;99552.75;;;30.58;22.47
63347;BME280;49472;49.880;8.650;2022-11-20T01:46:04;99554.50;;;30.95;22.55
63347;BME280;49472;49.880;8.650;2022-11-20T01:48:42;99551.72;;;30.64;22.67
63347;BME280;49472;49.880;8.650;2022-11-20T01:51:17;99544.00;;;31.10;22.28
63347;BME280;49472;49.880;8.650;2022-11-20T01:53:44;99540.31;;;31.22;22.27
63347;BME280;49472;49.880;8.650;2022-11-20T01:56:12;99546.09;;;31.03;22.49
63347;BME280;49472;49.880;8.650;2022-11-20T01:58:45;99548.50;;;31.15;22.35
63347;BME280;49472;49.880;8.650;2022-11-20T02:01:13;99545.03;;;30.94;22.21
63347;BME280;49472;49.880;8.650;2022-11-20T02:03:39;99543.44;;;31.03;22.64
63347;BME280;49472;49.880;8.650;2022-11-20T02:06:24;99538.06;;;31.61;22.35
63347;BME280;49472;49.880;8.650;2022-11-20T02:08:51;99536.06;;;31.05;22.51
63347;BME280;49472;49.880;8.650;2022-11-20T02:11:17;99544.00;;;31.10;22.54
63347;BME280;49472;49.880;8.650;2022-11-20T02:13:42;99547.53;;;30.74;22.29
63347;BME280;49472;49.880;8.650;2022-11-20T02:16:10;99532.00;;;32.07;21.74
63347;BME280;49472;49.880;8.650;2022-11-20T02:18:37;99539.13;;;31.55;21.96
63347;BME280;49472;49.880;8.650;2022-11-20T02:21:12;99533.56;;;31.87;22.19
63347;BME280;49472;49.880;8.650;2022-11-20T02:24:01;99537.81;;;31.88;21.84
63347;BME280;49472;49.880;8.650;2022-11-20T02:26:28;99537.81;;;31.78;22.25
63347;BME280;49472;49.880;8.650;2022-11-20T02:28:54;99534.81;;;31.28;22.55
63347;BME280;49472;49.880;8.650;2022-11-20T02:31:19;99532.41;;;31.27;22.73
63347;BME280;49472;49.880;8.650;2022-11-20T02:33:45;99529.34;;;31.66;22.20
63347;BME280;49472;49.880;8.650;2022-11-20T02:36:12;99524.06;;;31.86;22.13
63347;BME280;49472;49.880;8.650;2022-11-20T02:38:39;99524.84;;;31.61;22.00
63347;BME280;49472;49.880;8.650;2022-11-20T02:41:05;99520.88;;;31.74;21.88
63347;BME280;49472;49.880;8.650;2022-11-20T02:43:30;99527.50;;;31.61;22.22
63347;BME280;49472;49.880;8.650;2022-11-20T02:45:55;99522.31;;;31.03;22.48
63347;BME280;49472;49.880;8.650;2022-11-20T02:48:20;99520.88;;;31.53;21.96
63347;BME280;49472;49.880;8.650;2022-11-20T02:50:46;99529.91;;;30.37;22.62
63347;BME280;49472;49.880;8.650;2022-11-20T02:53:11;99526.41;;;30.68;22.50
63347;BME280;49472;49.880;8.650;2022-11-20T02:55:36;99520.09;;;30.75;22.88
63347;BME280;49472;49.880;8.650;2022-11-20T02:58:02;99521.34;;;30.62;22.60
63347;BME280;49472;49.880;8.650;2022-11-20T03:00:27;99522.91;;;30.58;23.01
63347;BME280;49472;49.880;8.650;2022-11-20T03:02:53;99526.78;;;30.45;22.50
63347;BME280;49472;49.880;8.650;2022-11-20T03:05:18;99523.25;;;30.71;22.97
63347;BME280;49472;49.880;8.650;2022-11-20T03:07:44;99527.53;;;29.98;23.71
63347;BME280;49472;49.880;8.650;2022-11-20T03:10:09;99516.25;;;30.45;22.99
63347;BME280;49472;49.880;8.650;2022-11-20T03:12:35;99526.38;;;30.63;23.27
63347;BME280;49472;49.880;8.650;2022-11-20T03:15:00;99535.59;;;30.61;22.83
63347;BME280;49472;49.880;8.650;2022-11-20T03:17:25;99529.19;;;30.46;22.97
63347;BME280;49472;49.880;8.650;2022-11-20T03:19:50;99529.84;;;30.69;22.81
63347;BME280;49472;49.880;8.650;2022-11-20T03:22:16;99522.13;;;31.25;22.16
63347;BME280;49472;49.880;8.650;2022-11-20T03:24:41;99525.31;;;31.38;21.81
63347;BME280;49472;49.880;8.650;2022-11-20T03:27:06;99535.94;;;31.53;22.01
63347;BME280;49472;49.880;8.650;2022-11-20T03:29:31;99527.97;;;31.38;21.79
63347;BME280;49472;49.880;8.650;2022-11-20T03:31:57;99522.78;;;30.85;22.72
63347;BME280;49472;49.880;8.650;2022-11-20T03:34:22;99519.31;;;30.74;22.86
63347;BME280;49472;49.880;8.650;2022-11-20T03:36:48;99516.56;;;30.54;22.67
63347;BME280;49472;49.880;8.650;2022-11-20T03:39:13;99515.63;;;30.27;22.38
63347;BME280;49472;49.880;8.650;2022-11-20T03:41:40;99516.34;;;29.85;23.35
63347;BME280;49472;49.880;8.650;2022-11-20T03:44:09;99526.06;;;29.53;23.21
63347;BME280;49472;49.880;8.650;2022-11-20T03:46:35;99537.81;;;29.99;22.92
63347;BME280;49472;49.880;8.650;2022-11-20T03:49:01;99532.28;;;30.01;22.68
63347;BME280;49472;49.880;8.650;2022-11-20T03:51:29;99521.63;;;30.23;23.15
63347;BME280;49472;49.880;8.650;2022-11-20T03:53:56;99527.03;;;30.38;22.99
63347;BME280;49472;49.880;8.650;2022-11-20T03:56:24;99515.78;;;30.16;22.87
63347;BME280;49472;49.880;8.650;2022-11-20T03:58:50;99517.66;;;29.83;22.49
63347;BME280;49472;49.880;8.650;2022-11-20T04:01:20;99516.19;;;29.97;22.81
63347;BME280;49472;49.880;8.650;2022-11-20T04:03:46;99529.06;;;30.26;22.84
63347;BME280;49472;49.880;8.650;2022-11-20T04:06:15;99522.06;;;29.72;22.84
63347;BME280;49472;49.880;8.650;2022-11-20T04:08:41;99523.41;;;29.53;23.41
63347;BME280;49472;49.880;8.650;2022-11-20T04:11:20;99525.66;;;29.93;23.19
63347;BME280;49472;49.880;8.650;2022-11-20T04:13:49;99516.81;;;30.52;22.59
63347;BME280;49472;49.880;8.650;2022-11-20T04:16:16;99520.03;;;30.64;22.73
63347;BME280;49472;49.880;8.650;2022-11-20T04:18:41;99517.91;;;30.19;22.83
63347;BME280;49472;49.880;8.650;2022-11-20T04:21:07;99528.69;;;29.04;23.38
63347;BME280;49472;49.880;8.650;2022-11-20T04:23:33;99514.00;;;29.89;23.58
63347;BME280;49472;49.880;8.650;2022-11-20T04:26:09;99517.13;;;28.83;23.79
63347;BME280;49472;49.880;8.650;2022-11-20T04:28:34;99502.06;;;29.49;23.23
63347;BME280;49472;49.880;8.650;2022-11-20T04:31:11;99502.16;;;29.92;23.14
63347;BME280;49472;49.880;8.650;2022-11-20T04:33:38;99498.34;;;29.72;23.17
63347;BME280;49472;49.880;8.650;2022-11-20T04:38:30;99488.47;;;29.62;22.79
63347;BME280;49472;49.880;8.650;2022-11-20T04:40:59;99496.47;;;30.05;23.24
63347;BME280;49472;49.880;8.650;2022-11-20T04:43:25;99486.69;;;29.68;23.12
63347;BME280;49472;49.880;8.650;2022-11-20T04:45:51;99484.81;;;29.96;22.58
63347;BME280;49472;49.880;8.650;2022-11-20T04:48:17;99485.94;;;30.05;22.67
63347;BME280;49472;49.880;8.650;2022-11-20T04:50:42;99482.84;;;30.61;23.07
63347;BME280;49472;49.880;8.650;2022-11-20T04:53:07;99488.88;;;30.14;22.68
63347;BME280;49472;49.880;8.650;2022-11-20T04:55:33;99496.91;;;29.10;23.85
63347;BME280;49472;49.880;8.650;2022-11-20T04:57:58;99505.44;;;28.95;23.66
63347;BME280;49472;49.880;8.650;2022-11-20T05:00:24;99497.03;;;29.20;23.83
63347;BME280;49472;49.880;8.650;2022-11-20T05:02:49;99497.84;;;29.75;22.73
63347;BME280;49472;49.880;8.650;2022-11-20T05:05:14;99499.31;;;29.66;23.37
63347;BME280;49472;49.880;8.650;2022-11-20T05:07:39;99491.63;;;30.29;22.98
63347;BME280;49472;49.880;8.650;2022-11-20T05:10:05;99505.25;;;29.24;23.63
63347;BME280;49472;49.880;8.650;2022-11-20T05:12:31;99493.91;;;30.15;22.54
63347;BME280;49472;49.880;8.650;2022-11-20T05:14:56;99494.53;;;30.33;22.82
63347;BME280;49472;49.880;8.650;2022-11-20T05:17:21;99494.44;;;30.17;22.68
63347;BME280;49472;49.880;8.650;2022-11-20T05:19:47;99491.19;;;30.47;22.77
63347;BME280;49472;49.880;8.650;2022-11-20T05:22:12;99491.22;;;30.53;22.61
63347;BME280;49472;49.880;8.650;2022-11-20T05:24:37;99492.63;;;30.23;22.44
63347;BME280;49472;49.880;8.650;2022-11-20T05:27:02;99482.47;;;30.04;23.22
63347;BME280;49472;49.880;8.650;2022-11-20T05:29:28;99479.56;;;30.38;22.74
63347;BME280;49472;49.880;8.650;2022-11-20T05:31:53;99477.59;;;30.23;23.02
63347;BME280;49472;49.880;8.650;2022-11-20T05:34:18;99473.59;;;30.16;22.04
63347;BME280;49472;49.880;8.650;2022-11-20T05:36:44;99485.16;;;30.10;23.36
63347;BME280;49472;49.880;8.650;2022-11-20T05:39:09;99487.47;;;30.01;22.85
63347;BME280;49472;49.880;8.650;2022-11-20T05:41:34;99489.31;;;30.00;22.75
63347;BME280;49472;49.880;8.650;2022-11-20T05:44:00;99485.47;;;30.18;22.29
63347;BME280;49472;49.880;8.650;2022-11-20T05:46:25;99485.59;;;30.34;22.66
63347;BME280;49472;49.880;8.650;2022-11-20T05:48:51;99484.16;;;30.16;22.77
63347;BME280;49472;49.880;8.650;2022-11-20T05:51:18;99480.44;;;30.59;22.70
63347;BME280;49472;49.880;8.650;2022-11-20T05:53:43;99471.97;;;30.57;22.15
63347;BME280;49472;49.880;8.650;2022-11-20T05:56:14;99466.09;;;31.08;22.48
63347;BME280;49472;49.880;8.650;2022-11-20T05:58:40;99466.81;;;30.83;22.55
63347;BME280;49472;49.880;8.650;2022-11-20T06:01:22;99466.16;;;31.74;22.11
63347;BME280;49472;49.880;8.650;2022-11-20T06:03:48;99471.19;;;31.40;21.99
63347;BME280;49472;49.880;8.650;2022-11-20T06:06:16;99471.13;;;31.09;21.96
63347;BME280;49472;49.880;8.650;2022-11-20T06:08:42;99487.94;;;30.83;22.13
63347;BME280;49472;49.880;8.650;2022-11-20T06:11:09;99485.13;;;30.47;23.05
63347;BME280;49472;49.880;8.650;2022-11-20T06:13:35;99462.56;;;30.71;22.60
63347;BME280;49472;49.880;8.650;2022-11-20T06:16:01;99458.94;;;30.93;23.68
63347;BME280;49472;49.880;8.650;2022-11-20T06:18:28;99451.31;;;31.02;23.11
63347;BME280;49472;49.880;8.650;2022-11-20T06:23:32;99472.13;;;30.93;22.67
63347;BME280;49472;49.880;8.650;2022-11-20T06:26:01;99464.72;;;30.85;22.40
63347;BME280;49472;49.880;8.650;2022-11-20T06:28:26;99474.84;;;30.50;23.01
63347;BME280;49472;49.880;8.650;2022-11-20T06:30:52;99472.66;;;30.90;22.55
63347;BME280;49472;49.880;8.650;2022-11-20T06:33:17;99473.03;;;30.51;22.72
63347;BME280;49472;49.880;8.650;2022-11-20T06:35:42;99474.91;;;30.61;23.20
63347;BME280;49472;49.880;8.650;2022-11-20T06:38:07;99483.63;;;30.61;22.94
63347;BME280;49472;49.880;8.650;2022-11-20T06:40:33;99480.06;;;30.40;23.10
63347;BME280;49472;49.880;8.650;2022-11-20T06:42:58;99468.38;;;30.74;23.12
63347;BME280;49472;49.880;8.650;2022-11-20T06:45:23;99470.56;;;30.97;22.92
63347;BME280;49472;49.880;8.650;2022-11-20T06:47:48;99483.38;;;30.68;22.73
63347;BME280;49472;49.880;8.650;2022-11-20T06:50:14;99478.06;;;30.58;23.72
63347;BME280;49472;49.880;8.650;2022-11-20T06:52:39;99483.47;;;30.93;22.51
63347;BME280;49472;49.880;8.650;2022-11-20T06:55:04;99470.84;;;31.11;22.57
63347;BME280;49472;49.880;8.650;2022-11-20T06:57:30;99475.06;;;30.97;22.42
63347;BME280;49472;49.880;8.650;2022-11-20T06:59:55;99484.63;;;30.55;22.43
63347;BME280;49472;49.880;8.650;2022-11-20T07:02:20;99487.38;;;30.81;22.85
63347;BME280;49472;49.880;8.650;2022-11-20T07:04:46;99478.47;;;30.87;22.89
63347;BME280;49472;49.880;8.650;2022-11-20T07:07:11;99491.19;;;31.10;22.41
63347;BME280;49472;49.880;8.650;2022-11-20T07:09:36;99497.66;;;30.72;22.56
63347;BME280;49472;49.880;8.650;2022-11-20T07:12:01;99493.19;;;30.78;23.04
63347;BME280;49472;49.880;8.650;2022-11-20T07:14:27;99496.59;;;30.73;22.83
63347;BME280;49472;49.880;8.650;2022-11-20T07:16:52;99500.13;;;30.89;22.89
63347;BME280;49472;49.880;8.650;2022-11-20T07:19:17;99496.97;;;30.97;22.53
63347;BME280;49472;49.880;8.650;2022-11-20T07:21:43;99500.38;;;30.92;22.51
63347;BME280;49472;49.880;8.650;2022-11-20T07:24:08;99503.88;;;29.76;22.86
63347;BME280;49472;49.880;8.650;2022-11-20T07:26:33;99511.28;;;30.11;23.44
63347;BME280;49472;49.880;8.650;2022-11-20T07:28:59;99498.88;;;30.49;22.92
63347;BME280;49472;49.880;8.650;2022-11-20T07:31:24;99510.53;;;30.58;22.83
63347;BME280;49472;49.880;8.650;2022-11-20T07:33:49;99507.06;;;30.53;23.20
63347;BME280;49472;49.880;8.650;2022-11-20T07:36:15;99495.22;;;30.65;23.00
63347;BME280;49472;49.880;8.650;2022-11-20T07:38:40;99498.50;;;30.83;22.55
63347;BME280;49472;49.880;8.650;2022-11-20T07:41:05;99491.69;;;30.92;22.80
63347;BME280;49472;49.880;8.650;2022-11-20T07:43:30;99493.72;;;30.80;22.37
63347;BME280;49472;49.880;8.650;2022-11-20T07:45:57;99499.75;;;30.70;22.31
63347;BME280;49472;49.880;8.650;2022-11-20T07:48:24;99508.97;;;30.67;23.02
63347;BME280;49472;49.880;8.650;2022-11-20T07:50:49;99500.31;;;30.77;22.44
63347;BME280;49472;49.880;8.650;2022-11-20T07:53:14;99516.47;;;30.33;22.63
63347;BME280;49472;49.880;8.650;2022-11-20T07:55:45;99524.69;;;30.10;23.15
63347;BME280;49472;49.880;8.650;2022-11-20T07:58:11;99525.41;;;30.32;23.21
63347;BME280;49472;49.880;8.650;2022-11-20T08:00:36;99534.28;;;30.58;22.92
63347;BME280;49472;49.880;8.650;2022-11-20T08:03:05;99525.38;;;30.80;22.64
63347;BME280;49472;49.880;8.650;2022-11-20T08:05:30;99531.28;;;30.92;22.31
63347;BME280;49472;49.880;8.650;2022-11-20T08:07:55;99532.59;;;30.95;22.16
63347;BME280;49472;49.880;8.650;2022-11-20T08:10:21;99529.22;;;31.04;22.43
63347;BME280;49472;49.880;8.650;2022-11-20T08:12:50;99531.38;;;31.23;22.14
63347;BME280;49472;49.880;8.650;2022-11-20T08:15:35;99521.91;;;31.42;21.92
63347;BME280;49472;49.880;8.650;2022-11-20T08:18:11;99535.94;;;31.58;21.94
63347;BME280;49472;49.880;8.650;2022-11-20T08:20:36;99530.34;;;31.39;22.21
63347;BME280;49472;49.880;8.650;2022-11-20T08:23:04;99538.03;;;31.41;22.39
63347;BME280;49472;49.880;8.650;2022-11-20T08:25:31;99535.66;;;31.60;21.94
63347;BME280;49472;49.880;8.650;2022-11-20T08:27:58;99537.28;;;31.91;21.54
63347;BME280;49472;49.880;8.650;2022-11-20T08:30:23;99535.94;;;31.43;22.00
63347;BME280;49472;49.880;8.650;2022-11-20T08:32:49;99529.38;;;31.96;22.25
63347;BME280;49472;49.880;8.650;2022-11-20T08:35:15;99528.84;;;31.99;22.14
63347;BME280;49472;49.880;8.650;2022-11-20T08:37:40;99527.72;;;31.39;22.28
63347;BME280;49472;49.880;8.650;2022-11-20T08:40:09;99544.16;;;31.92;22.19
63347;BME280;49472;49.880;8.650;2022-11-20T08:42:34;99541.25;;;32.14;22.10
63347;BME280;49472;49.880;8.650;2022-11-20T08:44:59;99546.66;;;31.15;22.28
63347;BME280;49472;49.880;8.650;2022-11-20T08:47:25;99537.78;;;31.47;22.31
63347;BME280;49472;49.880;8.650;2022-11-20T08:49:50;99539.91;;;31.55;22.24
63347;BME280;49472;49.880;8.650;2022-11-20T08:52:15;99543.78;;;31.17;22.50
63347;BME280;49472;49.880;8.650;2022-11-20T08:54:40;99548.94;;;31.95;22.39
63347;BME280;49472;49.880;8.650;2022-11-20T08:57:06;99543.88;;;32.30;22.13
63347;BME280;49472;49.880;8.650;2022-11-20T08:59:31;99536.16;;;32.38;21.49
63347;BME280;49472;49.880;8.650;2022-11-20T09:01:56;99531.69;;;32.44;22.07
63347;BME280;49472;49.880;8.650;2022-11-20T09:04:22;99531.88;;;32.68;21.68
63347;BME280;49472;49.880;8.650;2022-11-20T09:06:47;99539.59;;;32.59;21.53
63347;BME280;49472;49.880;8.650;2022-11-20T09:09:16;99536.91;;;32.75;21.87
63347;BME280;49472;49.880;8.650;2022-11-20T09:11:41;99544.09;;;30.78;22.67
63347;BME280;49472;49.880;8.650;2022-11-20T09:14:07;99544.22;;;30.99;23.01
63347;BME280;49472;49.880;8.650;2022-11-20T09:16:32;99543.47;;;31.13;22.56
63347;BME280;49472;49.880;8.650;2022-11-20T09:18:57;99551.13;;;29.82;23.90
63347;BME280;49472;49.880;8.650;2022-11-20T09:21:22;99559.22;;;30.88;22.98
63347;BME280;49472;49.880;8.650;2022-11-20T09:23:48;99552.69;;;30.53;23.22
63347;BME280;49472;49.880;8.650;2022-11-20T09:26:14;99554.13;;;30.71;23.23
63347;BME280;49472;49.880;8.650;2022-11-20T09:28:40;99544.63;;;31.38;22.58
63347;BME280;49472;49.880;8.650;2022-11-20T09:31:06;99552.38;;;30.87;23.12
63347;BME280;49472;49.880;8.650;2022-11-20T09:33:32;99558.44;;;31.76;22.13
63347;BME280;49472;49.880;8.650;2022-11-20T09:35:57;99552.88;;;32.03;21.72
63347;BME280;49472;49.880;8.650;2022-11-20T09:38:22;99560.56;;;31.99;22.07
63347;BME280;49472;49.880;8.650;2022-11-20T09:56:21;99554.50;;;31.94;22.03
63347;BME280;49472;49.880;8.650;2022-11-20T09:58:55;99551.53;;;32.31;22.22
63347;BME280;49472;49.880;8.650;2022-11-20T10:01:26;99553.94;;;32.07;21.59
63347;BME280;49472;49.880;8.650;2022-11-20T10:03:58;99550.59;;;31.08;22.47
63347;BME280;49472;49.880;8.650;2022-11-20T10:06:30;99550.50;;;31.86;22.38
63347;BME280;49472;49.880;8.650;2022-11-20T10:11:31;99548.91;;;32.16;22.32
63347;BME280;49472;49.880;8.650;2022-11-20T10:14:23;99548.69;;;30.93;22.88
63347;BME280;49472;49.880;8.650;2022-11-20T10:17:00;99540.47;;;31.88;22.34
63347;BME280;49472;49.880;8.650;2022-11-20T10:19:34;99538.34;;;31.95;22.14
63347;BME280;49472;49.880;8.650;2022-11-20T10:25:13;99537.88;;;30.89;22.80
63347;BME280;49472;49.880;8.650;2022-11-20T10:30:44;99535.50;;;30.93;22.85
63347;BME280;49472;49.880;8.650;2022-11-20T10:33:22;99533.91;;;30.87;22.84
63347;BME280;49472;49.880;8.650;2022-11-20T10:39:04;99518.94;;;31.23;22.91
63347;BME280;49472;49.880;8.650;2022-11-20T10:41:40;99522.22;;;32.02;22.35
63347;BME280;49472;49.880;8.650;2022-11-20T10:44:21;99518.25;;;31.94;22.07
63347;BME280;49472;49.880;8.650;2022-11-20T10:47:12;99521.97;;;31.73;22.47
63347;BME280;49472;49.880;8.650;2022-11-20T10:49:38;99522.66;;;31.27;22.93
63347;BME280;49472;49.880;8.650;2022-11-20T10:52:23;99512.88;;;31.28;22.87
63347;BME280;49472;49.880;8.650;2022-11-20T10:55:11;99513.91;;;31.22;22.60
63347;BME280;49472;49.880;8.650;2022-11-20T10:57:52;99515.22;;;31.19;22.95
63347;BME280;49472;49.880;8.650;2022-11-20T11:00:20;99515.13;;;29.66;23.67
63347;BME280;49472;49.880;8.650;2022-11-20T11:07:53;99516.06;;;30.62;23.29
63347;BME280;49472;49.880;8.650;2022-11-20T11:12:48;99503.38;;;30.54;23.48
63347;BME280;49472;49.880;8.650;2022-11-20T11:15:35;99501.06;;;31.76;22.76
63347;BME280;49472;49.880;8.650;2022-11-20T11:18:01;99496.31;;;30.69;23.10
63347;BME280;49472;49.880;8.650;2022-11-20T11:20:26;99483.78;;;31.02;23.32
63347;BME280;49472;49.880;8.650;2022-11-20T11:22:54;99477.72;;;30.39;22.96
63347;BME280;49472;49.880;8.650;2022-11-20T11:25:24;99480.81;;;30.25;23.85
63347;BME280;49472;49.880;8.650;2022-11-20T11:27:51;99480.75;;;30.73;23.46
63347;BME280;49472;49.880;8.650;2022-11-20T11:30:19;99482.81;;;31.44;22.89
63347;BME280;49472;49.880;8.650;2022-11-20T11:32:44;99485.47;;;30.61;23.71
63347;BME280;49472;49.880;8.650;2022-11-20T11:35:46;99478.84;;;32.08;22.08
63347;BME280;49472;49.880;8.650;2022-11-20T11:38:17;99474.84;;;31.24;22.98
63347;BME280;49472;49.880;8.650;2022-11-20T11:40:46;99490.22;;;30.16;23.49
63347;BME280;49472;49.880;8.650;2022-11-20T11:43:20;99490.97;;;29.74;24.43
63347;BME280;49472;49.880;8.650;2022-11-20T11:51:21;99474.75;;;30.88;23.17
63347;BME280;49472;49.880;8.650;2022-11-20T11:53:46;99484.66;;;31.64;23.07
63347;BME280;49472;49.880;8.650;2022-11-20T11:56:13;99461.69;;;31.44;22.79
63347;BME280;49472;49.880;8.650;2022-11-20T11:58:47;99462.47;;;30.08;23.74
63347;BME280;49472;49.880;8.650;2022-11-20T12:01:38;99460.59;;;30.46;23.46
63347;BME280;49472;49.880;8.650;2022-11-20T12:04:21;99458.59;;;30.21;24.20
63347;BME280;49472;49.880;8.650;2022-11-20T12:07:01;99452.38;;;31.11;23.36
63347;BME280;49472;49.880;8.650;2022-11-20T12:09:37;99451.91;;;31.75;22.72
63347;BME280;49472;49.880;8.650;2022-11-20T12:12:11;99444.34;;;32.54;22.40
63347;BME280;49472;49.880;8.650;2022-11-20T12:14:41;99449.50;;;31.28;23.20
63347;BME280;49472;49.880;8.650;2022-11-20T12:17:12;99450.56;;;32.09;22.67
63347;BME280;49472;49.880;8.650;2022-11-20T12:19:38;99453.06;;;30.18;24.12
63347;BME280;49472;49.880;8.650;2022-11-20T12:25:07;99454.47;;;30.31;24.44
63347;BME280;49472;49.880;8.650;2022-11-20T12:30:21;99447.78;;;30.81;23.82
63347;BME280;49472;49.880;8.650;2022-11-20T12:44:24;99424.13;;;31.98;22.88
63347;BME280;49472;49.880;8.650;2022-11-20T13:00:54;99431.44;;;33.32;22.38
63347;BME280;49472;49.880;8.650;2022-11-20T13:03:35;99435.75;;;31.97;23.05
63347;BME280;49472;49.880;8.650;2022-11-20T13:08:36;99415.03;;;32.25;23.11
63347;BME280;49472;49.880;8.650;2022-11-20T13:11:31;99419.22;;;32.52;22.87
63347;BME280;49472;49.880;8.650;2022-11-20T13:14:11;99414.38;;;32.59;22.99
63347;BME280;49472;49.880;8.650;2022-11-20T13:19:17;99401.09;;;32.69;23.38
63347;BME280;49472;49.880;8.650;2022-11-20T13:21:45;99396.63;;;32.70;22.73
63347;BME280;49472;49.880;8.650;2022-11-20T13:24:31;99389.16;;;33.16;22.54
63347;BME280;49472;49.880;8.650;2022-11-20T13:29:38;99382.28;;;33.15;22.78
63347;BME280;49472;49.880;8.650;2022-11-20T13:32:13;99378.06;;;33.72;22.74
63347;BME280;49472;49.880;8.650;2022-11-20T13:34:39;99370.06;;;34.02;22.07
63347;BME280;49472;49.880;8.650;2022-11-20T13:37:27;99372.09;;;33.86;22.37
63347;BME280;49472;49.880;8.650;2022-11-20T13:39:53;99373.72;;;32.89;23.06
63347;BME280;49472;49.880;8.650;2022-11-20T13:44:50;99362.41;;;34.00;22.18
63347;BME280;49472;49.880;8.650;2022-11-20T13:47:28;99358.66;;;34.25;22.11
63347;BME280;49472;49.880;8.650;2022-11-20T13:49:55;99357.81;;;34.06;21.98
63347;BME280;49472;49.880;8.650;2022-11-20T13:58:03;99357.75;;;33.34;22.72
63347;BME280;49472;49.880;8.650;2022-11-20T14:00:30;99349.50;;;33.35;22.72
63347;BME280;49472;49.880;8.650;2022-11-20T14:03:09;99350.50;;;33.98;22.40
63347;BME280;49472;49.880;8.650;2022-11-20T14:05:48;99349.94;;;33.77;22.41
63347;BME280;49472;49.880;8.650;2022-11-20T14:08:23;99346.03;;;33.93;22.36
63347;BME280;49472;49.880;8.650;2022-11-20T14:10:49;99347.34;;;33.42;22.83
63347;BME280;49472;49.880;8.650;2022-11-20T14:13:19;99351.66;;;33.86;22.49
63347;BME280;49472;49.880;8.650;2022-11-20T14:15:45;99343.66;;;33.09;22.84
63347;BME280;49472;49.880;8.650;2022-11-20T14:18:18;99343.34;;;33.16;23.19
63347;BME280;49472;49.880;8.650;2022-11-20T14:20:44;99338.19;;;33.29;23.13
63347;BME280;49472;49.880;8.650;2022-11-20T14:23:10;99335.97;;;33.66;22.87
63347;BME280;49472;49.880;8.650;2022-11-20T14:25:36;99330.75;;;33.85;22.50
63347;BME280;49472;49.880;8.650;2022-11-20T14:28:03;99323.63;;;33.80;22.91
63347;BME280;49472;49.880;8.650;2022-11-20T14:30:36;99327.59;;;33.29;23.10
63347;BME280;49472;49.880;8.650;2022-11-20T14:33:03;99325.63;;;33.11;23.30
63347;BME280;49472;49.880;8.650;2022-11-20T14:35:34;99315.88;;;32.72;23.86
63347;BME280;49472;49.880;8.650;2022-11-20T14:38:01;99319.09;;;33.03;23.46
63347;BME280;49472;49.880;8.650;2022-11-20T14:40:30;99316.19;;;32.95;23.32